createdAt,value
2022-11-09T00:02:30.420Z,19.10
2022-11-09T00:07:23.622Z,18.60
2022-11-09T00:12:16.911Z,17.88
2022-11-09T00:17:11.564Z,17.10
2022-11-09T00:22:04.886Z,17.55
2022-11-09T00:26:58.043Z,18.63
2022-11-09T00:31:54.914Z,19.73
2022-11-09T00:36:49.556Z,20.20
2022-11-09T00:41:42.767Z,20.48
2022-11-09T00:46:36.272Z,20.08
2022-11-09T00:51:29.737Z,20.00
2022-11-09T00:56:24.710Z,19.60
2022-11-09T01:01:19.165Z,19.63
2022-11-09T01:06:16.189Z,18.55
2022-11-09T01:11:11.406Z,19.48
2022-11-09T01:16:09.432Z,19.95
2022-11-09T01:21:05.046Z,18.45
2022-11-09T01:26:01.935Z,18.88
2022-11-09T01:30:55.463Z,19.50
2022-11-09T01:35:50.222Z,18.85
2022-11-09T01:40:43.540Z,20.50
2022-11-09T01:45:36.889Z,20.20
2022-11-09T01:50:39.589Z,20.73
2022-11-09T01:55:34.234Z,19.05
2022-11-09T02:00:27.396Z,18.92
2022-11-09T02:05:30.051Z,17.05
2022-11-09T02:10:29.231Z,18.05
2022-11-09T02:15:27.347Z,19.70
2022-11-09T02:20:23.095Z,19.75
2022-11-09T02:25:18.955Z,19.63
2022-11-09T02:30:14.076Z,20.83
2022-11-09T02:35:07.637Z,19.27
2022-11-09T02:40:05.813Z,20.13
2022-11-09T02:45:00.880Z,19.98
2022-11-09T02:49:54.818Z,21.38
2022-11-09T02:54:48.272Z,20.75
2022-11-09T02:59:43.013Z,19.40
2022-11-09T03:04:37.455Z,18.40
2022-11-09T03:09:31.867Z,20.15
2022-11-09T03:14:25.085Z,19.00
2022-11-09T03:19:24.790Z,20.90
2022-11-09T03:24:19.461Z,21.25
2022-11-09T03:29:12.989Z,20.05
2022-11-09T03:34:06.483Z,21.83
2022-11-09T03:39:03.396Z,21.17
2022-11-09T03:43:58.468Z,22.63
2022-11-09T03:48:51.797Z,21.75
2022-11-09T03:53:44.994Z,19.30
2022-11-09T03:58:39.555Z,18.38
2022-11-09T04:03:32.901Z,21.48
2022-11-09T04:08:27.340Z,21.58
2022-11-09T04:13:20.759Z,20.45
2022-11-09T04:18:17.894Z,21.77
2022-11-09T04:23:12.514Z,23.58
2022-11-09T04:28:07.229Z,24.02
2022-11-09T04:33:02.100Z,20.92
2022-11-09T04:37:57.794Z,23.65
2022-11-09T04:42:51.215Z,25.48
2022-11-09T04:47:46.719Z,23.10
2022-11-09T04:52:40.191Z,23.33
2022-11-09T04:57:34.822Z,27.67
2022-11-09T05:02:28.085Z,30.48
2022-11-09T05:07:21.511Z,28.80
2022-11-09T05:12:15.108Z,27.40
2022-11-09T05:17:10.017Z,30.75
2022-11-09T05:22:23.517Z,32.07
2022-11-09T05:27:16.932Z,32.33
2022-11-09T05:32:14.658Z,30.40
2022-11-09T05:37:08.308Z,35.95
2022-11-09T05:42:01.564Z,32.38
2022-11-09T05:46:55.236Z,29.65
2022-11-09T05:51:51.936Z,29.48
2022-11-09T05:56:47.856Z,32.40
2022-11-09T06:01:41.349Z,30.25
2022-11-09T06:06:34.753Z,29.88
2022-11-09T06:11:29.922Z,30.67
2022-11-09T06:16:23.659Z,35.72
2022-11-09T06:21:16.892Z,26.95
2022-11-09T06:26:12.432Z,27.05
2022-11-09T06:31:11.745Z,27.25
2022-11-09T06:36:05.632Z,28.42
2022-11-09T06:41:00.438Z,26.88
2022-11-09T06:45:53.948Z,23.85
2022-11-09T06:50:48.619Z,26.05
2022-11-09T06:55:45.838Z,28.05
2022-11-09T07:00:42.385Z,30.05
2022-11-09T07:05:39.345Z,28.40
2022-11-09T07:10:33.892Z,28.35
2022-11-09T07:15:27.090Z,28.65
2022-11-09T07:20:20.467Z,32.10
2022-11-09T07:25:14.157Z,32.83
2022-11-09T07:30:09.923Z,34.47
2022-11-09T07:35:03.522Z,34.45
2022-11-09T07:39:56.701Z,33.72
2022-11-09T07:44:49.811Z,44.58
2022-11-09T07:49:44.367Z,50.17
2022-11-09T07:54:38.208Z,32.47
2022-11-09T07:59:31.640Z,30.65
2022-11-09T08:04:24.981Z,31.08
2022-11-09T08:09:19.688Z,28.60
2022-11-09T08:14:12.791Z,29.52
2022-11-09T08:19:08.958Z,29.23
2022-11-09T08:24:02.070Z,31.30
2022-11-09T08:28:56.923Z,28.55
2022-11-09T08:33:50.048Z,27.70
2022-11-09T08:38:44.287Z,27.27
2022-11-09T08:43:37.640Z,27.65
2022-11-09T08:48:32.233Z,28.10
2022-11-09T08:53:26.655Z,27.73
2022-11-09T08:58:21.056Z,27.88
2022-11-09T09:03:14.611Z,26.95
2022-11-09T09:08:11.698Z,26.65
2022-11-09T09:13:05.656Z,27.27
2022-11-09T09:18:01.646Z,24.92
2022-11-09T09:22:54.735Z,25.55
2022-11-09T09:27:52.922Z,27.33
2022-11-09T09:32:46.225Z,25.52
2022-11-09T09:37:39.329Z,25.88
2022-11-09T09:42:36.534Z,24.05
2022-11-09T09:47:41.844Z,24.77
2022-11-09T09:52:40.357Z,24.65
2022-11-09T09:57:40.505Z,22.45
2022-11-09T10:02:38.297Z,26.60
2022-11-09T10:07:39.016Z,24.30
2022-11-09T10:12:43.080Z,26.30
2022-11-09T10:17:45.766Z,24.25
2022-11-09T10:22:53.166Z,23.45
2022-11-09T10:27:53.338Z,22.60
2022-11-09T10:32:53.198Z,21.88
2022-11-09T10:37:49.172Z,23.83
2022-11-09T10:42:46.368Z,20.77
2022-11-09T10:48:03.287Z,23.27
2022-11-09T10:53:18.180Z,22.20
2022-11-09T10:58:34.388Z,23.15
2022-11-09T11:03:51.561Z,22.25
2022-11-09T11:09:17.732Z,21.27
2022-11-09T11:14:34.163Z,21.55
2022-11-09T11:19:47.334Z,22.23
2022-11-09T11:25:00.257Z,21.88
2022-11-09T11:30:16.908Z,20.73
2022-11-09T11:35:37.273Z,19.15
2022-11-09T11:41:01.572Z,18.65
2022-11-09T11:46:19.259Z,17.40
2022-11-09T11:51:43.423Z,16.88
2022-11-09T11:57:04.558Z,18.27
2022-11-09T12:02:45.111Z,15.85
2022-11-09T12:08:04.017Z,16.05
2022-11-09T12:13:32.880Z,16.42
2022-11-09T12:18:58.018Z,15.52
2022-11-09T12:24:19.657Z,16.02
2022-11-09T12:29:37.125Z,16.35
2022-11-09T12:34:58.166Z,18.60
2022-11-09T12:45:34.266Z,18.63
2022-11-09T12:50:49.176Z,17.92
2022-11-09T12:56:05.909Z,18.65
2022-11-09T13:01:51.145Z,17.63
2022-11-09T13:07:30.066Z,17.70
2022-11-09T13:12:43.806Z,16.38
2022-11-09T13:19:29.525Z,16.50
2022-11-09T16:12:03.624Z,29.42
2022-11-09T16:17:36.603Z,31.65
2022-11-09T16:23:07.562Z,30.90
2022-11-09T16:35:32.688Z,30.73
2022-11-09T16:40:45.718Z,29.85
2022-11-09T16:45:57.393Z,29.55
2022-11-09T16:51:10.802Z,31.13
2022-11-09T16:56:22.572Z,32.17
2022-11-09T17:01:36.799Z,34.05
2022-11-09T17:06:50.820Z,36.20
2022-11-09T17:12:03.180Z,32.30
2022-11-09T17:17:21.280Z,33.72
2022-11-09T17:22:35.875Z,32.92
2022-11-09T17:27:48.336Z,33.58
2022-11-09T17:33:00.554Z,31.67
2022-11-09T17:38:16.779Z,33.42
2022-11-09T17:43:30.790Z,33.15
2022-11-09T17:48:44.820Z,34.90
2022-11-09T17:53:59.521Z,34.35
2022-11-09T17:59:12.275Z,36.28
2022-11-09T18:04:28.683Z,68.25
2022-11-09T18:09:42.728Z,47.25
2022-11-09T18:14:54.888Z,48.05
2022-11-09T18:20:07.870Z,45.05
2022-11-09T18:25:22.319Z,40.35
2022-11-09T18:30:34.093Z,43.95
2022-11-09T18:35:46.285Z,47.47
2022-11-09T18:41:02.046Z,43.03
2022-11-09T18:46:16.248Z,41.70
2022-11-09T18:51:28.454Z,39.15
2022-11-09T18:56:41.993Z,39.42
2022-11-09T19:01:53.902Z,39.95
2022-11-09T19:07:06.210Z,40.90
2022-11-09T19:12:19.541Z,45.60
2022-11-09T19:17:31.501Z,43.03
2022-11-09T19:22:44.219Z,51.17
2022-11-09T19:27:58.659Z,54.72
2022-11-09T19:33:10.520Z,71.75
2022-11-09T19:38:22.368Z,67.95
2022-11-09T19:43:35.983Z,63.17
2022-11-09T19:48:48.963Z,57.88
2022-11-09T19:54:02.369Z,57.67
2022-11-09T19:59:17.395Z,54.58
2022-11-09T20:04:29.507Z,44.00
2022-11-09T20:09:41.238Z,38.38
2022-11-09T20:14:57.251Z,31.48
2022-11-09T20:20:11.196Z,26.77
2022-11-09T20:25:24.754Z,26.63
2022-11-09T20:30:43.049Z,27.30
2022-11-09T20:35:58.242Z,25.35
2022-11-09T20:41:13.385Z,23.75
2022-11-09T20:46:36.197Z,26.48
2022-11-09T20:51:49.332Z,27.75
2022-11-09T20:57:04.503Z,27.00
2022-11-09T21:02:18.082Z,25.38
2022-11-09T21:07:38.957Z,26.98
2022-11-09T21:12:54.542Z,26.30
2022-11-09T21:18:11.574Z,25.27
2022-11-09T21:23:40.912Z,26.45
2022-11-09T21:29:10.562Z,27.67
2022-11-09T21:34:24.228Z,26.77
2022-11-09T21:39:36.739Z,26.27
2022-11-09T21:44:48.748Z,28.35
2022-11-09T21:50:01.823Z,26.40
2022-11-09T21:55:13.568Z,27.10
2022-11-09T22:00:25.253Z,26.15
2022-11-09T22:05:40.637Z,29.20
2022-11-09T22:10:52.488Z,29.15
2022-11-09T22:16:13.589Z,28.40
2022-11-09T22:21:29.832Z,26.85
2022-11-09T22:26:42.722Z,25.67
2022-11-09T22:31:54.615Z,29.70
2022-11-09T22:37:09.175Z,28.45
2022-11-09T22:42:23.904Z,24.27
2022-11-09T22:47:36.110Z,24.17
2022-11-09T22:52:54.144Z,23.27
2022-11-09T22:58:06.365Z,24.38
2022-11-09T23:03:19.415Z,24.02
2022-11-09T23:08:37.549Z,24.30
2022-11-09T23:13:51.443Z,25.98
2022-11-09T23:19:03.754Z,26.42
2022-11-09T23:24:37.815Z,25.17
2022-11-09T23:29:49.666Z,25.60
2022-11-09T23:35:03.838Z,25.58
2022-11-09T23:40:17.698Z,24.58
2022-11-09T23:45:29.529Z,24.95
2022-11-09T23:50:41.912Z,27.67
2022-11-09T23:55:56.301Z,27.95
